Decoded Metar for EINN (SHANNON in IRELAND) (IATA:SNN) | Meteo·Mobile Aviation Weather
aviador You're here:

EINN Decoded Metar

SHANNON in IRELAND
Report Time2019-04-19 22:30:00
UTC Time2019-04-19 22:57:43
Flight Rules vfr VFR
Wind300° at 02 kt
W.Decomp.*RWY 24: 0.8 kt HW 1.8 kt RCW
Visibility9999 m
Phenomena:N/A
Clouds:N/A
Expected CloudBase > 400 ft AGL from Temp-Dew spread
CeilingNone
Temp10°C (ISA -5)
Dew Point09°C (94% RH)
AAT9.1°C
QNH1031 hPa
Density Alt-968 ft
Elevation66 ft
Report Wrong Elevation
Raw Report
METAR EINN 192230Z 30002KT CAVOK 10/09 Q1031 NOSIG=

Extra information for EINN:More info

Metar Taf Metar & Taf Last 4 Metars F.Rules Stats Wind Profile Meteogram Temp Stats Airport Information Weather charts Add Link Nearby VenuesMetar ALERT Operation Metar Decoded Social comments